Whitsett, Texas
Current Conditions -  °F | °C
As of 7:35 AM on Friday 28 Nov 2014 (Local Time) from KPEZ Reporting Station
Clear Clear  
Wind Chill: 40°   Ceiling: Unl
Heat Index: 40°   Visibility: 10mi
Dew Point: 39°   Wind: 0mph
Humidity: 95%   Direction: NA
Pressure: 30.33"   Gusts: NA
Location:  28.63°N, 98.27°W
Report Text: KPEZ 281335Z AUTO 00000KT 10SM CLR 05/04 A3033 RMK AO2 T00450037
Loading
Personal Weather Stations






























Interactive Weather Map New forecast layout! Learn more

10-Day Weather Forecast

Advertisements
Track Severe Weather on mobile